Time;durP1;ratioP1;P1;durP2;ratioP2;P2;SDS_P1;SDS_P2;PMS_P1;PMS_P2;Temp;Humidity;BMP_temperature;BMP_pressure;BME280_temperature;BME280_humidity;BME280_pressure;Samples;Min_cycle;Max_cycle;Signal;HPM_P1;HPM_P2
2023/11/02 06:01:09;;;;;;;10.03;3.30;;;;;;;;;;5657796;23;20588;-73
2023/11/02 06:03:35;;;;;;;8.17;2.70;;;;;;;;;;5006562;28;20442;-71
2023/11/02 06:06:01;;;;;;;5.87;3.00;;;;;;;;;;4993563;28;20441;-71
2023/11/02 06:08:27;;;;;;;3.30;2.73;;;;;;;;;;5006520;28;20465;-73
2023/11/02 06:10:53;;;;;;;5.77;3.13;;;;;;;;;;4989595;28;20444;-74
2023/11/02 06:13:19;;;;;;;5.70;2.37;;;;;;;;;;4982521;28;20434;-74
2023/11/02 06:15:45;;;;;;;3.50;2.43;;;;;;;;;;4993684;28;20407;-72
2023/11/02 06:18:11;;;;;;;3.40;2.70;;;;;;;;;;4983329;28;20431;-73
2023/11/02 06:20:37;;;;;;;4.90;2.37;;;;;;;;;;4973181;28;20553;-73
2023/11/02 06:23:03;;;;;;;7.60;2.80;;;;;;;;;;4973681;28;20939;-73
2023/11/02 06:25:29;;;;;;;4.67;2.40;;;;;;;;;;4973682;28;20424;-74
2023/11/02 06:27:55;;;;;;;3.50;2.03;;;;;;;;;;4979118;28;20455;-74
2023/11/02 06:30:21;;;;;;;2.17;1.83;;;;;;;;;;4989886;28;20418;-73
2023/11/02 06:32:47;;;;;;;4.47;2.53;;;;;;;;;;4976086;28;20499;-72
2023/11/02 06:35:14;;;;;;;2.80;2.27;;;;;;;;;;4980638;28;20495;-74
2023/11/02 06:37:59;;;;;;;4.33;2.43;;;;;;;;;;4974572;28;21033;-72
2023/11/02 06:40:25;;;;;;;2.93;2.20;;;;;;;;;;4962807;28;20438;-73
2023/11/02 06:42:52;;;;;;;2.70;2.47;;;;;;;;;;4963634;28;21069;-73
2023/11/02 06:45:18;;;;;;;11.97;4.00;;;;;;;;;;4990696;28;20422;-72
2023/11/02 06:47:45;;;;;;;7.63;3.20;;;;;;;;;;4981300;28;20459;-72
2023/11/02 06:50:11;;;;;;;9.37;2.87;;;;;;;;;;4989508;28;20431;-72
2023/11/02 06:52:37;;;;;;;6.87;3.67;;;;;;;;;;4995265;28;20472;-72
2023/11/02 06:55:03;;;;;;;7.30;3.30;;;;;;;;;;5011032;28;20824;-72
2023/11/02 06:57:29;;;;;;;4.40;2.83;;;;;;;;;;4991704;28;20576;-72
2023/11/02 06:59:55;;;;;;;3.60;2.50;;;;;;;;;;4990506;28;20509;-73
2023/11/02 07:02:24;;;;;;;3.37;2.60;;;;;;;;;;4973126;28;20463;-73
2023/11/02 07:04:57;;;;;;;2.80;2.33;;;;;;;;;;4972621;28;20941;-72
2023/11/02 07:07:23;;;;;;;6.53;2.90;;;;;;;;;;4973971;28;20464;-72
2023/11/02 07:09:51;;;;;;;7.63;2.57;;;;;;;;;;4973058;28;20787;-72
2023/11/02 07:12:17;;;;;;;6.80;3.30;;;;;;;;;;4990689;28;20536;-72
2023/11/02 07:14:43;;;;;;;4.07;2.63;;;;;;;;;;4983334;28;20473;-73
2023/11/02 07:17:10;;;;;;;4.00;3.07;;;;;;;;;;4992277;28;20427;-75
2023/11/02 07:19:35;;;;;;;6.83;3.20;;;;;;;;;;4990745;28;20427;-74
2023/11/02 07:22:01;;;;;;;7.00;3.10;;;;;;;;;;4991998;28;20431;-74
2023/11/02 07:24:27;;;;;;;14.70;7.70;;;;;;;;;;4982307;28;20493;-71
2023/11/02 07:26:54;;;;;;;26.47;11.53;;;;;;;;;;4981692;28;20431;-71
2023/11/02 07:29:20;;;;;;;6.87;4.73;;;;;;;;;;4955448;28;20424;-75
2023/11/02 07:31:47;;;;;;;3.93;2.70;;;;;;;;;;4973177;28;20808;-78
2023/11/02 07:34:13;;;;;;;5.95;3.22;;;;;;;;;;4976683;28;20477;-73
2023/11/02 07:36:39;;;;;;;4.77;2.67;;;;;;;;;;4961013;28;20263;-76
2023/11/02 07:39:05;;;;;;;6.60;3.70;;;;;;;;;;4976353;28;20927;-75
2023/11/02 07:41:31;;;;;;;6.00;2.77;;;;;;;;;;5010642;28;20520;-73
2023/11/02 07:43:57;;;;;;;5.00;2.60;;;;;;;;;;5015890;28;20860;-73
2023/11/02 07:46:23;;;;;;;11.03;2.90;;;;;;;;;;5015174;28;20821;-73
2023/11/02 07:48:49;;;;;;;4.70;2.60;;;;;;;;;;4997695;28;20504;-73
2023/11/02 07:51:16;;;;;;;12.07;4.70;;;;;;;;;;5015102;28;20453;-74
2023/11/02 07:53:42;;;;;;;4.37;2.60;;;;;;;;;;5015243;28;20770;-73
2023/11/02 07:56:11;;;;;;;9.87;3.30;;;;;;;;;;5003072;28;20469;-74
2023/11/02 07:58:42;;;;;;;4.63;3.30;;;;;;;;;;4976287;28;20744;-73
2023/11/02 08:01:08;;;;;;;7.30;3.30;;;;;;;;;;4976058;28;20813;-74
2023/11/02 08:03:34;;;;;;;6.53;2.80;;;;;;;;;;4976055;28;20420;-74
2023/11/02 08:06:00;;;;;;;5.30;2.80;;;;;;;;;;4976019;28;20444;-74
2023/11/02 08:08:26;;;;;;;6.47;3.63;;;;;;;;;;4976409;28;20565;-74
2023/11/02 08:10:52;;;;;;;8.20;3.80;;;;;;;;;;4976308;28;20428;-73
2023/11/02 08:13:18;;;;;;;11.70;3.63;;;;;;;;;;4976128;28;20440;-73
2023/11/02 08:15:44;;;;;;;5.23;3.30;;;;;;;;;;4975862;28;20895;-73
2023/11/02 08:18:11;;;;;;;5.40;3.87;;;;;;;;;;4975994;28;20887;-73
2023/11/02 08:20:37;;;;;;;12.13;4.30;;;;;;;;;;4975659;28;20457;-74
2023/11/02 08:23:03;;;;;;;10.43;3.50;;;;;;;;;;4990109;28;20434;-72
2023/11/02 08:25:29;;;;;;;7.60;4.43;;;;;;;;;;4993043;28;20426;-71
2023/11/02 08:27:57;;;;;;;7.73;4.40;;;;;;;;;;4995068;28;20465;-71
2023/11/02 08:30:24;;;;;;;13.13;5.03;;;;;;;;;;4978577;28;20426;-70
2023/11/02 08:32:51;;;;;;;11.20;5.47;;;;;;;;;;4975629;28;20412;-70
2023/11/02 08:35:18;;;;;;;10.73;5.90;;;;;;;;;;4975777;28;20411;-72
2023/11/02 08:37:44;;;;;;;13.80;6.13;;;;;;;;;;4976638;28;20424;-72
2023/11/02 08:40:10;;;;;;;10.17;4.83;;;;;;;;;;4976311;28;20780;-72
2023/11/02 08:42:37;;;;;;;9.70;5.20;;;;;;;;;;4976440;28;20435;-72
2023/11/02 08:45:03;;;;;;;17.50;5.30;;;;;;;;;;4975992;28;20926;-72
2023/11/02 08:47:30;;;;;;;7.87;3.00;;;;;;;;;;4975470;28;20556;-72
2023/11/02 08:49:56;;;;;;;3.60;2.73;;;;;;;;;;4981984;28;20431;-72
2023/11/02 08:52:22;;;;;;;4.77;2.57;;;;;;;;;;4986532;28;20535;-72
2023/11/02 08:54:48;;;;;;;5.97;2.27;;;;;;;;;;4983661;28;20459;-72
2023/11/02 08:57:14;;;;;;;6.50;2.00;;;;;;;;;;4976082;28;20428;-73
2023/11/02 08:59:40;;;;;;;9.20;2.80;;;;;;;;;;4975326;28;20423;-72
2023/11/02 09:02:06;;;;;;;7.17;3.20;;;;;;;;;;4975018;28;20547;-73
2023/11/02 09:04:33;;;;;;;2.80;2.17;;;;;;;;;;4975062;28;20478;-73
2023/11/02 09:06:59;;;;;;;4.77;2.40;;;;;;;;;;4975178;28;20544;-71
2023/11/02 09:09:25;;;;;;;2.17;2.00;;;;;;;;;;4974855;28;20535;-73
2023/11/02 09:11:52;;;;;;;2.20;2.00;;;;;;;;;;4974568;28;20439;-73
2023/11/02 09:14:18;;;;;;;5.83;2.40;;;;;;;;;;4981881;28;20439;-73
2023/11/02 09:16:45;;;;;;;9.73;4.30;;;;;;;;;;4983163;28;20412;-71
2023/11/02 09:19:11;;;;;;;10.03;3.30;;;;;;;;;;4996248;28;20458;-71
2023/11/02 09:21:37;;;;;;;8.63;3.30;;;;;;;;;;4997147;28;20434;-72
2023/11/02 09:24:04;;;;;;;4.07;2.53;;;;;;;;;;4994431;28;20418;-73
2023/11/02 09:26:30;;;;;;;11.53;3.10;;;;;;;;;;4994127;28;20526;-72
2023/11/02 09:28:56;;;;;;;23.40;3.90;;;;;;;;;;4974780;28;20494;-71
2023/11/02 09:31:27;;;;;;;10.77;4.20;;;;;;;;;;4974608;28;21026;-71
2023/11/02 09:33:53;;;;;;;15.40;4.33;;;;;;;;;;4974601;28;20446;-73
2023/11/02 09:36:19;;;;;;;44.47;7.70;;;;;;;;;;4974518;28;20892;-73
2023/11/02 09:38:45;;;;;;;32.80;5.17;;;;;;;;;;4974441;28;20420;-72
2023/11/02 09:41:11;;;;;;;13.73;3.43;;;;;;;;;;4974645;28;20451;-73
2023/11/02 09:43:40;;;;;;;35.77;6.53;;;;;;;;;;4979365;28;20491;-72
2023/11/02 09:46:07;;;;;;;15.03;4.17;;;;;;;;;;4983343;28;20454;-72
2023/11/02 09:48:33;;;;;;;75.47;12.10;;;;;;;;;;4976238;28;20606;-72
2023/11/02 09:50:59;;;;;;;20.53;4.70;;;;;;;;;;4993371;28;20449;-72
2023/11/02 09:53:28;;;;;;;12.43;2.77;;;;;;;;;;4976230;28;20490;-72
2023/11/02 09:55:54;;;;;;;9.90;3.43;;;;;;;;;;4992878;28;20403;-73
2023/11/02 09:58:21;;;;;;;5.80;2.93;;;;;;;;;;4993410;28;20501;-72
2023/11/02 10:00:47;;;;;;;16.60;4.80;;;;;;;;;;4993257;28;20446;-71
2023/11/02 10:03:13;;;;;;;7.90;3.73;;;;;;;;;;4988264;28;20919;-72
2023/11/02 10:05:39;;;;;;;30.80;6.03;;;;;;;;;;4973914;28;20474;-71
2023/11/02 10:08:05;;;;;;;20.63;5.70;;;;;;;;;;4982522;28;20465;-74
2023/11/02 10:10:32;;;;;;;11.73;4.13;;;;;;;;;;4977230;28;20537;-73
2023/11/02 10:12:58;;;;;;;21.67;5.00;;;;;;;;;;4973847;28;20450;-71
2023/11/02 10:15:24;;;;;;;37.73;4.90;;;;;;;;;;4977578;28;20439;-71
2023/11/02 10:17:50;;;;;;;17.47;4.10;;;;;;;;;;4993187;28;20411;-71
2023/11/02 10:20:17;;;;;;;15.20;4.10;;;;;;;;;;4987534;28;20428;-72
2023/11/02 10:23:05;;;;;;;4.37;3.00;;;;;;;;;;4973352;28;20782;-71
2023/11/02 10:25:32;;;;;;;1.63;1.40;;;;;;;;;;4990761;28;20431;-71
2023/11/02 10:28:00;;;;;;;2.10;1.67;;;;;;;;;;4974190;28;20485;-73
2023/11/02 10:30:26;;;;;;;4.30;1.63;;;;;;;;;;4973520;28;20478;-71
2023/11/02 10:32:52;;;;;;;2.23;1.60;;;;;;;;;;4975624;28;20531;-72
2023/11/02 10:35:18;;;;;;;5.50;2.03;;;;;;;;;;4992700;28;20462;-72
2023/11/02 10:37:44;;;;;;;5.27;2.57;;;;;;;;;;4992949;28;20426;-72
2023/11/02 10:40:11;;;;;;;7.53;2.47;;;;;;;;;;4992595;28;20494;-73
2023/11/02 10:42:39;;;;;;;12.43;2.77;;;;;;;;;;4992765;28;20506;-73
2023/11/02 10:45:06;;;;;;;16.10;3.30;;;;;;;;;;4992552;28;20426;-73
2023/11/02 10:47:34;;;;;;;2.50;1.40;;;;;;;;;;4992634;28;20455;-72
2023/11/02 10:50:02;;;;;;;4.27;1.83;;;;;;;;;;4992279;28;20410;-73
2023/11/02 10:52:29;;;;;;;4.00;1.37;;;;;;;;;;4992487;28;20457;-72
2023/11/02 10:54:59;;;;;;;1.30;1.23;;;;;;;;;;4992564;28;20434;-72
2023/11/02 10:57:25;;;;;;;3.20;1.50;;;;;;;;;;4992519;28;20415;-73
2023/11/02 10:59:53;;;;;;;4.10;1.23;;;;;;;;;;4992397;28;20418;-72
2023/11/02 11:02:19;;;;;;;1.77;1.00;;;;;;;;;;4991892;28;20462;-73
2023/11/02 11:04:49;;;;;;;2.03;1.67;;;;;;;;;;4992187;28;20415;-73
2023/11/02 11:07:15;;;;;;;4.13;1.70;;;;;;;;;;4981312;28;20450;-76
2023/11/02 11:09:41;;;;;;;3.10;1.67;;;;;;;;;;4991839;28;20501;-77
2023/11/02 11:12:07;;;;;;;3.33;1.37;;;;;;;;;;4992326;28;20439;-77
2023/11/02 11:14:35;;;;;;;2.00;1.67;;;;;;;;;;4993177;28;20466;-77
2023/11/02 11:17:01;;;;;;;5.30;0.97;;;;;;;;;;4992772;28;20422;-76
2023/11/02 11:19:31;;;;;;;2.73;1.37;;;;;;;;;;4992144;28;20446;-76
2023/11/02 11:21:57;;;;;;;4.13;1.67;;;;;;;;;;4992178;28;20847;-75
2023/11/02 11:24:30;;;;;;;6.23;1.97;;;;;;;;;;4992517;28;20441;-75
2023/11/02 11:26:58;;;;;;;3.13;1.00;;;;;;;;;;4992284;28;20434;-73
2023/11/02 11:29:37;;;;;;;1.63;1.20;;;;;;;;;;4992357;28;20423;-76
2023/11/02 11:32:10;;;;;;;1.00;0.90;;;;;;;;;;4992260;28;20457;-74
2023/11/02 11:34:54;;;;;;;2.30;1.37;;;;;;;;;;4991751;28;20477;-75
2023/11/02 11:37:37;;;;;;;4.20;2.00;;;;;;;;;;4992260;28;20411;-73
2023/11/02 11:40:05;;;;;;;5.30;1.40;;;;;;;;;;4992186;28;20403;-76
2023/11/02 11:42:50;;;;;;;3.13;1.40;;;;;;;;;;4993545;28;20419;-76
2023/11/02 11:45:30;;;;;;;1.47;1.13;;;;;;;;;;4993915;28;20399;-77
2023/11/02 11:47:56;;;;;;;1.80;1.70;;;;;;;;;;4992829;28;20793;-76
2023/11/02 11:50:31;;;;;;;2.83;1.00;;;;;;;;;;4993738;28;20403;-77
2023/11/02 11:53:16;;;;;;;2.63;1.00;;;;;;;;;;4992017;28;20430;-77
2023/11/02 11:55:43;;;;;;;1.43;1.10;;;;;;;;;;4992127;28;20497;-77
2023/11/02 11:58:09;;;;;;;1.30;0.90;;;;;;;;;;4993550;28;20890;-76
2023/11/02 12:00:36;;;;;;;3.97;1.23;;;;;;;;;;4992669;28;20435;-76
2023/11/02 12:03:05;;;;;;;1.93;0.93;;;;;;;;;;4990732;28;20824;-75
2023/11/02 12:05:43;;;;;;;1.80;1.37;;;;;;;;;;4989758;28;20464;-76
2023/11/02 12:08:09;;;;;;;1.03;0.80;;;;;;;;;;4985355;28;20454;-77
2023/11/02 12:10:45;;;;;;;1.20;1.10;;;;;;;;;;4992288;28;20463;-77
2023/11/02 12:13:12;;;;;;;2.63;1.90;;;;;;;;;;4992058;28;20484;-75
2023/11/02 12:15:51;;;;;;;1.30;1.23;;;;;;;;;;4992114;28;20415;-75
2023/11/02 12:18:20;;;;;;;1.97;1.50;;;;;;;;;;4991842;28;20867;-76
2023/11/02 12:20:46;;;;;;;3.67;1.00;;;;;;;;;;4995249;28;20523;-72
2023/11/02 12:23:13;;;;;;;1.97;1.30;;;;;;;;;;4995557;28;20769;-72
2023/11/02 12:25:42;;;;;;;2.97;1.30;;;;;;;;;;4995466;28;20458;-74
2023/11/02 12:28:11;;;;;;;16.60;3.63;;;;;;;;;;4995484;28;20471;-71
2023/11/02 12:30:44;;;;;;;30.97;4.43;;;;;;;;;;4977348;28;20946;-72
2023/11/02 12:33:11;;;;;;;22.07;2.73;;;;;;;;;;4995124;28;20415;-71
2023/11/02 12:35:37;;;;;;;12.50;1.90;;;;;;;;;;4963541;28;20747;-71
2023/11/02 12:38:06;;;;;;;3.27;1.10;;;;;;;;;;4975967;28;20478;-74
2023/11/02 12:40:50;;;;;;;5.23;2.50;;;;;;;;;;4975653;28;20800;-72
2023/11/02 12:43:22;;;;;;;2.93;1.23;;;;;;;;;;4982885;28;20479;-71
2023/11/02 12:45:54;;;;;;;36.57;5.90;;;;;;;;;;4995002;28;20469;-72
2023/11/02 12:48:33;;;;;;;88.13;11.80;;;;;;;;;;4992011;28;20466;-72
2023/11/02 12:51:13;;;;;;;5.80;1.90;;;;;;;;;;4979384;28;20943;-72
2023/11/02 12:53:39;;;;;;;20.33;3.23;;;;;;;;;;4991905;28;20453;-73
2023/11/02 12:56:05;;;;;;;14.17;2.83;;;;;;;;;;4991455;28;20919;-74
2023/11/02 12:58:31;;;;;;;9.67;2.80;;;;;;;;;;5000621;28;20468;-73
2023/11/02 13:00:58;;;;;;;6.70;1.63;;;;;;;;;;5001904;28;20828;-72
2023/11/02 13:03:25;;;;;;;4.87;1.50;;;;;;;;;;4994514;28;20786;-73
2023/11/02 13:05:55;;;;;;;3.97;1.47;;;;;;;;;;4994711;28;20419;-72
2023/11/02 13:08:21;;;;;;;1.17;1.13;;;;;;;;;;4990558;28;20474;-72
2023/11/02 13:10:47;;;;;;;61.27;9.47;;;;;;;;;;4982486;28;20451;-73
2023/11/02 13:13:13;;;;;;;13.40;2.30;;;;;;;;;;4993994;28;20446;-73
2023/11/02 13:15:38;;;;;;;3.33;1.60;;;;;;;;;;4978351;28;20434;-73
2023/11/02 13:18:05;;;;;;;9.33;1.97;;;;;;;;;;4983104;28;20431;-73
2023/11/02 13:20:32;;;;;;;9.10;2.63;;;;;;;;;;4982525;28;20447;-73
2023/11/02 13:22:58;;;;;;;2.10;1.73;;;;;;;;;;4981425;28;20437;-72
2023/11/02 13:25:24;;;;;;;3.40;1.67;;;;;;;;;;4991940;28;20435;-73
2023/11/02 13:27:50;;;;;;;17.03;2.27;;;;;;;;;;4972546;28;20451;-73
2023/11/02 13:30:17;;;;;;;14.80;3.00;;;;;;;;;;4962858;28;20483;-73
2023/11/02 13:32:43;;;;;;;4.63;1.40;;;;;;;;;;4978353;28;20447;-71
2023/11/02 13:35:09;;;;;;;31.97;4.10;;;;;;;;;;4993534;28;20411;-73
2023/11/02 13:37:35;;;;;;;2.33;1.40;;;;;;;;;;4993067;28;20453;-71
2023/11/02 13:40:09;;;;;;;2.60;1.43;;;;;;;;;;4974362;28;20431;-72
2023/11/02 13:42:35;;;;;;;8.60;1.50;;;;;;;;;;4977031;28;20433;-73
2023/11/02 13:45:01;;;;;;;7.00;2.23;;;;;;;;;;4993583;28;20585;-72
2023/11/02 13:47:27;;;;;;;20.80;4.93;;;;;;;;;;4993499;28;20458;-73
2023/11/02 13:49:53;;;;;;;11.13;2.73;;;;;;;;;;4994142;28;20890;-72
2023/11/02 13:52:19;;;;;;;17.90;2.67;;;;;;;;;;4989900;28;20470;-74
2023/11/02 13:54:44;;;;;;;6.40;2.20;;;;;;;;;;4982055;28;20869;-75
2023/11/02 13:57:10;;;;;;;4.53;2.10;;;;;;;;;;4991713;28;20431;-75
2023/11/02 13:59:36;;;;;;;2.33;1.60;;;;;;;;;;4993449;28;20411;-76
2023/11/02 14:02:03;;;;;;;2.57;1.67;;;;;;;;;;4993035;28;20822;-73
2023/11/02 14:04:29;;;;;;;4.77;1.40;;;;;;;;;;4993306;28;20423;-74
2023/11/02 14:06:57;;;;;;;2.80;1.30;;;;;;;;;;4993205;28;20431;-73
2023/11/02 14:09:24;;;;;;;2.50;1.30;;;;;;;;;;4980683;28;20852;-73
2023/11/02 14:11:50;;;;;;;3.50;1.50;;;;;;;;;;4977737;28;20460;-73
2023/11/02 14:14:15;;;;;;;2.97;1.77;;;;;;;;;;4989456;28;20459;-73
2023/11/02 14:16:43;;;;;;;10.73;2.30;;;;;;;;;;4990645;28;20566;-73
2023/11/02 14:19:11;;;;;;;9.40;2.47;;;;;;;;;;4993193;28;20426;-74
2023/11/02 14:21:37;;;;;;;2.97;2.10;;;;;;;;;;4992801;28;20465;-73
2023/11/02 14:24:05;;;;;;;6.03;1.33;;;;;;;;;;4992990;28;20890;-73
2023/11/02 14:26:31;;;;;;;2.07;1.67;;;;;;;;;;4975389;28;20454;-74
2023/11/02 14:28:57;;;;;;;8.20;1.40;;;;;;;;;;4992978;28;20466;-73
2023/11/02 14:31:24;;;;;;;2.93;1.80;;;;;;;;;;4992668;28;20427;-74
2023/11/02 14:33:50;;;;;;;2.73;1.53;;;;;;;;;;4985588;28;20435;-72
2023/11/02 14:36:22;;;;;;;1.90;1.43;;;;;;;;;;4973372;28;20791;-73
2023/11/02 14:38:48;;;;;;;3.43;2.00;;;;;;;;;;4983029;28;20509;-73
2023/11/02 14:41:14;;;;;;;3.10;1.40;;;;;;;;;;4992202;28;20505;-72
2023/11/02 14:43:40;;;;;;;8.13;2.87;;;;;;;;;;4986757;28;20481;-71
2023/11/02 14:46:07;;;;;;;3.23;1.60;;;;;;;;;;4993581;28;20422;-72
2023/11/02 14:48:33;;;;;;;2.97;1.93;;;;;;;;;;4993154;28;20470;-72
2023/11/02 14:50:59;;;;;;;4.43;1.90;;;;;;;;;;4992590;28;20423;-72
2023/11/02 14:53:25;;;;;;;7.30;2.13;;;;;;;;;;4992741;28;20418;-73
2023/11/02 14:55:51;;;;;;;4.33;2.07;;;;;;;;;;4992619;28;20411;-71
2023/11/02 14:58:18;;;;;;;2.93;1.67;;;;;;;;;;4993094;28;20426;-72
2023/11/02 15:00:44;;;;;;;4.00;2.43;;;;;;;;;;4992202;28;20446;-72
2023/11/02 15:03:10;;;;;;;4.93;2.27;;;;;;;;;;4992307;28;20414;-73
2023/11/02 15:05:36;;;;;;;5.40;2.47;;;;;;;;;;4992304;28;20502;-73
2023/11/02 15:08:02;;;;;;;3.07;2.40;;;;;;;;;;4987229;28;20510;-73
2023/11/02 15:10:29;;;;;;;3.20;2.10;;;;;;;;;;4992706;28;20497;-73
2023/11/02 15:12:56;;;;;;;12.47;3.10;;;;;;;;;;4982223;28;20554;-73
2023/11/02 15:15:22;;;;;;;5.33;2.80;;;;;;;;;;4992177;28;20915;-72
2023/11/02 15:17:48;;;;;;;9.13;2.90;;;;;;;;;;4992331;28;20421;-74
2023/11/02 15:20:15;;;;;;;4.30;2.37;;;;;;;;;;4992228;28;20506;-75
2023/11/02 15:22:41;;;;;;;6.00;2.67;;;;;;;;;;4991968;28;20501;-71
2023/11/02 15:25:08;;;;;;;5.13;2.27;;;;;;;;;;4992148;28;20510;-72
2023/11/02 15:27:34;;;;;;;3.07;1.97;;;;;;;;;;4992331;28;20470;-74
2023/11/02 15:30:05;;;;;;;6.27;2.73;;;;;;;;;;4992277;28;20411;-73
2023/11/02 15:32:31;;;;;;;13.07;3.37;;;;;;;;;;4991977;28;20481;-72
2023/11/02 15:34:57;;;;;;;4.03;2.37;;;;;;;;;;4978993;28;20431;-73
2023/11/02 15:37:24;;;;;;;4.93;2.67;;;;;;;;;;4987106;28;20514;-75
2023/11/02 15:39:50;;;;;;;5.80;3.20;;;;;;;;;;4987519;28;20422;-72
2023/11/02 15:42:16;;;;;;;6.03;2.30;;;;;;;;;;4992322;28;20427;-74
2023/11/02 15:44:43;;;;;;;7.43;2.47;;;;;;;;;;4992146;28;20749;-73
2023/11/02 15:47:11;;;;;;;4.57;2.03;;;;;;;;;;4991588;28;20426;-73
2023/11/02 15:49:40;;;;;;;8.80;2.20;;;;;;;;;;4991880;28;20408;-73
2023/11/02 15:52:08;;;;;;;3.23;1.30;;;;;;;;;;4989186;28;20973;-73
2023/11/02 15:54:35;;;;;;;3.20;1.70;;;;;;;;;;4997431;28;20518;-73
2023/11/02 15:57:01;;;;;;;5.20;2.40;;;;;;;;;;4996511;28;20426;-76
2023/11/02 15:59:27;;;;;;;4.80;2.27;;;;;;;;;;4991109;28;20513;-74
2023/11/02 16:01:53;;;;;;;4.47;2.07;;;;;;;;;;4991577;28;20463;-78
2023/11/02 16:04:19;;;;;;;4.13;2.00;;;;;;;;;;4997398;28;20434;-75
2023/11/02 16:06:49;;;;;;;4.40;1.80;;;;;;;;;;4998041;28;20430;-73
2023/11/02 16:09:15;;;;;;;4.00;1.80;;;;;;;;;;4975863;28;20459;-73
2023/11/02 16:11:47;;;;;;;3.67;2.57;;;;;;;;;;4976451;28;20432;-74
2023/11/02 16:14:13;;;;;;;4.30;2.00;;;;;;;;;;4995652;28;20404;-74
2023/11/02 16:16:47;;;;;;;2.50;1.63;;;;;;;;;;4995760;28;20426;-73
2023/11/02 16:19:13;;;;;;;6.93;2.60;;;;;;;;;;4995564;28;20407;-73
2023/11/02 16:21:41;;;;;;;4.83;2.30;;;;;;;;;;4995262;28;20427;-73
2023/11/02 16:24:07;;;;;;;14.20;2.40;;;;;;;;;;4995899;28;20975;-72
2023/11/02 16:26:34;;;;;;;5.07;2.53;;;;;;;;;;4994038;28;20473;-73
2023/11/02 16:29:00;;;;;;;4.63;2.30;;;;;;;;;;4995463;28;20467;-73
2023/11/02 16:31:26;;;;;;;4.17;2.27;;;;;;;;;;4995080;28;20851;-73
2023/11/02 16:33:53;;;;;;;4.30;2.77;;;;;;;;;;4994679;28;20447;-73
2023/11/02 16:36:45;;;;;;;4.27;2.33;;;;;;;;;;4995102;28;20779;-73
2023/11/02 16:39:15;;;;;;;3.80;2.50;;;;;;;;;;4995288;28;20403;-72
2023/11/02 16:41:44;;;;;;;4.40;2.33;;;;;;;;;;4976547;28;20455;-73
2023/11/02 16:44:12;;;;;;;3.07;2.17;;;;;;;;;;4975570;28;20999;-73
2023/11/02 16:46:38;;;;;;;4.07;2.40;;;;;;;;;;4994052;28;20462;-73
2023/11/02 16:49:07;;;;;;;4.07;2.30;;;;;;;;;;4994909;28;20465;-72
2023/11/02 16:51:34;;;;;;;3.17;2.13;;;;;;;;;;4994735;28;20427;-74
2023/11/02 16:54:01;;;;;;;3.40;2.33;;;;;;;;;;4994773;28;20411;-73
2023/11/02 16:56:27;;;;;;;2.70;2.30;;;;;;;;;;4993076;28;20454;-73
2023/11/02 16:58:53;;;;;;;3.47;2.23;;;;;;;;;;4994089;28;20431;-73
2023/11/02 17:01:19;;;;;;;3.87;2.60;;;;;;;;;;4994388;28;20556;-73
2023/11/02 17:03:45;;;;;;;4.60;2.27;;;;;;;;;;4994624;28;20477;-73
2023/11/02 17:06:12;;;;;;;4.97;2.70;;;;;;;;;;4994366;28;20419;-73
2023/11/02 17:08:38;;;;;;;2.83;1.93;;;;;;;;;;4993506;28;20466;-73
2023/11/02 17:11:04;;;;;;;7.97;2.83;;;;;;;;;;4980200;28;20506;-73
2023/11/02 17:13:29;;;;;;;8.27;4.43;;;;;;;;;;4975275;28;20438;-73
2023/11/02 17:15:57;;;;;;;11.80;4.50;;;;;;;;;;4975189;28;20415;-73
2023/11/02 17:18:23;;;;;;;4.30;2.37;;;;;;;;;;4975075;28;20447;-73
2023/11/02 17:20:51;;;;;;;3.40;2.63;;;;;;;;;;4974789;28;20535;-73
2023/11/02 17:23:17;;;;;;;2.23;2.03;;;;;;;;;;4990636;28;20419;-73
2023/11/02 17:25:43;;;;;;;2.77;1.80;;;;;;;;;;4994207;28;20577;-72
2023/11/02 17:28:10;;;;;;;5.50;2.70;;;;;;;;;;4994428;28;20462;-72
2023/11/02 17:30:35;;;;;;;2.50;2.37;;;;;;;;;;4994211;28;20423;-72
2023/11/02 17:33:01;;;;;;;3.90;2.20;;;;;;;;;;4994125;28;20863;-72
2023/11/02 17:35:27;;;;;;;3.80;2.60;;;;;;;;;;4994575;28;20418;-72
2023/11/02 17:37:54;;;;;;;2.83;2.47;;;;;;;;;;4985806;28;20460;-72
2023/11/02 17:40:19;;;;;;;4.77;2.23;;;;;;;;;;4974942;28;20423;-72
2023/11/02 17:42:45;;;;;;;3.03;2.43;;;;;;;;;;4974710;28;20412;-73
2023/11/02 17:45:12;;;;;;;5.77;2.77;;;;;;;;;;4974427;28;20946;-73
2023/11/02 17:47:39;;;;;;;4.97;2.30;;;;;;;;;;4974616;28;20463;-73
2023/11/02 17:50:05;;;;;;;4.20;3.00;;;;;;;;;;4974614;28;20408;-72
2023/11/02 17:52:32;;;;;;;4.90;2.90;;;;;;;;;;4974317;28;20859;-72
2023/11/02 17:54:58;;;;;;;3.70;2.63;;;;;;;;;;4974325;28;20412;-73
2023/11/02 17:57:24;;;;;;;6.67;2.93;;;;;;;;;;4974378;28;20408;-73
2023/11/02 17:59:50;;;;;;;2.93;2.30;;;;;;;;;;4974424;28;20757;-73
2023/11/02 18:02:16;;;;;;;6.30;2.10;;;;;;;;;;4973562;28;20513;-72
2023/11/02 18:04:42;;;;;;;5.97;3.50;;;;;;;;;;4974229;28;20451;-72
2023/11/02 18:07:09;;;;;;;8.73;4.53;;;;;;;;;;4978460;28;20435;-72
2023/11/02 18:09:35;;;;;;;5.77;2.80;;;;;;;;;;4973795;28;20570;-72
2023/11/02 18:12:02;;;;;;;6.17;3.10;;;;;;;;;;4988275;28;20431;-74
2023/11/02 18:14:30;;;;;;;5.63;2.97;;;;;;;;;;4974938;28;20424;-73
2023/11/02 18:16:55;;;;;;;2.70;2.27;;;;;;;;;;4973772;28;20409;-73
2023/11/02 18:19:21;;;;;;;8.87;3.30;;;;;;;;;;4973887;28;20421;-71
2023/11/02 18:21:47;;;;;;;5.37;3.17;;;;;;;;;;4973672;28;20438;-73
2023/11/02 18:24:13;;;;;;;5.20;2.23;;;;;;;;;;4973852;28;20891;-74
2023/11/02 18:26:39;;;;;;;4.67;3.00;;;;;;;;;;4974031;28;20926;-73
2023/11/02 18:29:09;;;;;;;3.47;2.50;;;;;;;;;;4973771;28;20989;-72
2023/11/02 18:31:36;;;;;;;3.87;3.27;;;;;;;;;;4973547;28;20812;-72
2023/11/02 18:34:02;;;;;;;4.97;2.83;;;;;;;;;;4973866;28;20414;-73
2023/11/02 18:36:29;;;;;;;5.13;2.60;;;;;;;;;;4973734;28;20415;-73
2023/11/02 18:38:55;;;;;;;4.70;3.07;;;;;;;;;;4973631;28;20422;-73
2023/11/02 18:41:21;;;;;;;8.37;3.10;;;;;;;;;;4973339;28;20439;-73
2023/11/02 18:43:47;;;;;;;4.80;3.20;;;;;;;;;;4973725;28;20420;-73
2023/11/02 18:46:17;;;;;;;5.13;3.20;;;;;;;;;;4973691;28;20424;-74
2023/11/02 18:48:44;;;;;;;6.20;3.47;;;;;;;;;;4973384;28;20468;-74
2023/11/02 18:51:10;;;;;;;5.90;3.80;;;;;;;;;;4973112;28;20431;-73
2023/11/02 18:53:36;;;;;;;8.53;4.10;;;;;;;;;;4973305;28;20903;-74
2023/11/02 18:56:03;;;;;;;9.00;4.50;;;;;;;;;;4973351;28;20411;-73
2023/11/02 18:58:29;;;;;;;7.90;4.07;;;;;;;;;;4985873;28;20441;-73
2023/11/02 19:00:55;;;;;;;8.67;4.27;;;;;;;;;;4990373;28;20557;-72
2023/11/02 19:03:22;;;;;;;7.60;4.40;;;;;;;;;;4992744;28;20506;-73
2023/11/02 19:05:48;;;;;;;11.60;4.30;;;;;;;;;;4992811;28;20822;-73
2023/11/02 19:08:16;;;;;;;10.70;5.43;;;;;;;;;;4992396;28;20466;-73
2023/11/02 19:10:42;;;;;;;6.03;3.73;;;;;;;;;;4992268;28;20441;-73
2023/11/02 19:13:08;;;;;;;8.87;4.67;;;;;;;;;;4992644;28;20414;-73
2023/11/02 19:15:35;;;;;;;9.33;3.90;;;;;;;;;;4992187;28;20946;-72
2023/11/02 19:18:06;;;;;;;11.70;5.20;;;;;;;;;;4992657;28;20425;-72
2023/11/02 19:20:32;;;;;;;12.33;5.13;;;;;;;;;;4992449;28;20473;-72
2023/11/02 19:22:58;;;;;;;14.53;5.43;;;;;;;;;;4992264;28;20411;-73
2023/11/02 19:25:23;;;;;;;15.00;4.20;;;;;;;;;;4992091;28;20422;-72
2023/11/02 19:27:49;;;;;;;12.03;5.87;;;;;;;;;;4991982;28;20462;-71
2023/11/02 19:30:15;;;;;;;9.30;4.67;;;;;;;;;;4991865;28;20407;-71
2023/11/02 19:32:42;;;;;;;8.40;5.03;;;;;;;;;;4992277;28;20505;-73
2023/11/02 19:35:08;;;;;;;7.47;4.00;;;;;;;;;;4992381;28;20403;-73
2023/11/02 19:37:34;;;;;;;7.60;4.40;;;;;;;;;;4992153;28;20842;-72
2023/11/02 19:40:00;;;;;;;7.20;4.27;;;;;;;;;;4992122;28;20414;-73
2023/11/02 19:42:27;;;;;;;13.17;5.50;;;;;;;;;;4992037;28;20772;-72
2023/11/02 19:44:53;;;;;;;4.67;3.10;;;;;;;;;;4992215;28;20796;-72
2023/11/02 19:47:19;;;;;;;5.37;3.60;;;;;;;;;;4992159;28;20469;-73
2023/11/02 19:49:47;;;;;;;5.83;2.73;;;;;;;;;;4992257;28;20497;-73
2023/11/02 19:52:13;;;;;;;3.53;2.37;;;;;;;;;;4991916;28;20514;-71
2023/11/02 19:54:39;;;;;;;2.00;1.70;;;;;;;;;;4992347;28;20497;-72
2023/11/02 19:57:05;;;;;;;3.47;2.90;;;;;;;;;;4991595;28;20443;-73
2023/11/02 19:59:31;;;;;;;4.33;2.53;;;;;;;;;;4991269;28;20414;-73
2023/11/02 20:01:57;;;;;;;2.93;2.03;;;;;;;;;;4991689;28;20462;-72
2023/11/02 20:04:23;;;;;;;3.40;2.03;;;;;;;;;;4992133;28;20506;-72
2023/11/02 20:06:49;;;;;;;9.50;2.10;;;;;;;;;;4992055;28;20406;-73
2023/11/02 20:09:15;;;;;;;4.70;2.80;;;;;;;;;;4991976;28;20462;-73
2023/11/02 20:11:41;;;;;;;2.83;1.93;;;;;;;;;;4991757;28;20438;-73
2023/11/02 20:14:09;;;;;;;3.20;1.73;;;;;;;;;;4984476;28;20427;-74
2023/11/02 20:16:35;;;;;;;3.93;2.30;;;;;;;;;;4985214;28;20427;-74
2023/11/02 20:19:01;;;;;;;6.17;2.20;;;;;;;;;;4992231;28;20410;-73
2023/11/02 20:21:27;;;;;;;5.20;2.47;;;;;;;;;;4992616;28;20431;-72
2023/11/02 20:23:54;;;;;;;7.10;1.90;;;;;;;;;;4992707;28;20482;-73
2023/11/02 20:26:20;;;;;;;2.63;1.67;;;;;;;;;;4992189;28;20418;-72
2023/11/02 20:28:46;;;;;;;2.53;1.87;;;;;;;;;;4992135;28;20465;-73
2023/11/02 20:31:12;;;;;;;3.83;2.27;;;;;;;;;;4991689;28;20431;-72
2023/11/02 20:33:38;;;;;;;5.10;2.37;;;;;;;;;;4991875;28;20903;-70
2023/11/02 20:36:05;;;;;;;1.97;1.90;;;;;;;;;;4991953;28;20407;-71
2023/11/02 20:38:34;;;;;;;2.40;2.20;;;;;;;;;;4991975;28;20414;-70
2023/11/02 20:41:00;;;;;;;3.63;2.03;;;;;;;;;;4977841;28;20449;-72